Buffalo, WY

3:21 AM MDT on August 22, 2014 (GMT -0600)
Esponda Ranch | Change Station
CLOSE
Current Station
Personal Weather Station
Location: Buffalo, WY
Elevation: 4665 ft
Nearby Weather Stations

Elev 4665 ft 44.32 °N, 106.67 °W | Updated 4 minutes ago

Overcast
Overcast
57.0 °F
Feels Like 57.0 °F
N
0.0
Wind Variable Wind from NNE
Gusts 1.0 mph

Today
High -- | Low -- °F
--% Chance of Precip.
Yesterday
High -- | Low -- °F
Precip. -- in
6:18 AM 8:00 PM
Waning Crescent, 9% visible
Pressure 30.16 in
Visibility 10.0 miles
Clouds Scattered Clouds 600 ft
Mostly Cloudy 1700 ft
Overcast 2100 ft
Dew Point 55 °F
Humidity 94%
Rainfall 0.00 in
Snow Depth Not available.
UV 0 out of 12
Pollen 8.50 out of 12
Air Quality Not available.
Flu Activity Not available.
SPECI KBYG 220901Z AUTO 35004KT 10SM SCT006 BKN017 OVC021 13/12 A3016 RMK AO2 T01330122

More Conditions Fewer Conditions

Pressure 30.16 in
Visibility 10.0 miles
Clouds Scattered Clouds 600 ft
Mostly Cloudy 1700 ft
Overcast 2100 ft
Dew Point 55 °F
Humidity 94%
Rainfall 0.00 in
Snow Depth Not available.
UV 0 out of 12
Pollen 8.50 out of 12
Air Quality Not available.
Flu Activity Not available.
SPECI KBYG 220901Z AUTO 35004KT 10SM SCT006 BKN017 OVC021 13/12 A3016 RMK AO2 T01330122

More Conditions Fewer Conditions

10-Day Weather Forecast

Almanac

Astronomy

Aug. 22, 2014 Rise Set
Actual Time 6:18 AM MDT 8:00 PM MDT
Civil Twilight 5:47 AM MDT 8:31 PM MDT
Nautical Twilight 5:09 AM MDT 9:08 PM MDT
Astronomical Twilight 4:29 AM MDT 9:48 PM MDT
Moon 3:40 AM MDT 6:12 PM MDT
Length of Visible Light 14h 43m
Length of Day
13h 42m
Tomorrow will be 2m 51s shorter.
Waning Crescent, 9% of the Moon is Illuminated
Today
Waning Crescent
Aug 25
New
Sep 2
First Quarter
Sep 8
Full
Sep 15
Last Quarter

Today's Extremes

State Highs State Lows

Community

WunderPhotos

Upload Photos

1,746,146 photos uploaded!

Nearby

Snow Depth

Station Depth Elevation
Casper Mountain 1 in 7850 ft
Reno Hill 0 in 8500 ft
Windy Peak 0 in 7900 ft
Sylvan Lake 0 in 8420 ft
Big Sandy Opening 1 in 9080 ft

Earthquake Activity

City Distance Mag. Time & Date
No recent earthquake activity has been reported nearby.
Minimum magnitude displayed is 2.5.

Coastal Water Temperatures

Place Temperature
No Stations Reporting

Nearby Weather Stations